createdAt,value
2023-05-15T00:01:46.836Z,6.33
2023-05-15T00:04:13.996Z,6.78
2023-05-15T00:06:41.082Z,6.13
2023-05-15T00:09:08.843Z,6.63
2023-05-15T00:11:35.818Z,6.50
2023-05-15T00:14:02.826Z,6.23
2023-05-15T00:16:29.855Z,6.55
2023-05-15T00:18:56.885Z,6.68
2023-05-15T00:21:24.144Z,6.47
2023-05-15T00:23:54.079Z,6.05
2023-05-15T00:26:24.213Z,6.17
2023-05-15T00:28:52.016Z,6.00
2023-05-15T00:31:19.142Z,6.13
2023-05-15T00:33:46.107Z,6.32
2023-05-15T00:36:13.199Z,6.15
2023-05-15T00:38:40.301Z,5.90
2023-05-15T00:41:08.117Z,6.93
2023-05-15T00:43:36.797Z,6.38
2023-05-15T00:46:04.651Z,6.47
2023-05-15T00:48:33.292Z,6.82
2023-05-15T00:51:00.497Z,6.93
2023-05-15T00:53:28.260Z,7.15
2023-05-15T00:55:57.786Z,7.57
2023-05-15T00:58:27.107Z,6.63
2023-05-15T01:00:54.251Z,6.72
2023-05-15T01:03:21.365Z,7.00
2023-05-15T01:05:48.414Z,6.90
2023-05-15T01:08:37.889Z,6.85
2023-05-15T01:11:08.989Z,6.85
2023-05-15T01:13:35.983Z,6.05
2023-05-15T01:16:05.272Z,6.77
2023-05-15T01:18:32.772Z,6.32
2023-05-15T01:21:05.830Z,6.85
2023-05-15T01:23:38.600Z,6.45
2023-05-15T01:26:14.516Z,7.50
2023-05-15T01:28:59.490Z,6.90
2023-05-15T01:31:29.940Z,8.18
2023-05-15T01:34:02.655Z,8.13
2023-05-15T01:36:51.715Z,7.80
2023-05-15T01:39:23.284Z,8.70
2023-05-15T01:42:12.874Z,7.73
2023-05-15T01:44:50.934Z,9.15
2023-05-15T01:47:44.304Z,8.70
2023-05-15T01:50:14.920Z,8.15
2023-05-15T01:52:47.505Z,8.77
2023-05-15T01:55:16.294Z,8.07
2023-05-15T01:57:46.898Z,8.68
2023-05-15T02:00:14.510Z,8.93
2023-05-15T02:02:43.390Z,9.15
2023-05-15T02:05:12.395Z,8.98
2023-05-15T02:07:42.500Z,8.80
2023-05-15T02:10:11.920Z,8.63
2023-05-15T02:12:41.394Z,9.13
2023-05-15T02:15:12.254Z,8.82
2023-05-15T02:17:41.287Z,9.15
2023-05-15T02:20:09.202Z,8.47
2023-05-15T02:22:38.220Z,8.82
2023-05-15T02:25:06.219Z,9.52
2023-05-15T02:28:00.254Z,9.40
2023-05-15T02:30:33.334Z,8.70
2023-05-15T02:33:12.838Z,9.43
2023-05-15T02:35:56.167Z,9.25
2023-05-15T02:38:33.586Z,9.70
2023-05-15T02:41:01.239Z,8.02
2023-05-15T02:43:29.776Z,8.85
2023-05-15T02:45:57.792Z,9.07
2023-05-15T02:48:25.924Z,9.68
2023-05-15T02:50:53.647Z,9.48
2023-05-15T02:53:20.662Z,10.13
2023-05-15T02:55:48.134Z,9.48
2023-05-15T02:58:15.277Z,10.27
2023-05-15T03:00:42.506Z,9.93
2023-05-15T03:03:09.503Z,9.45
2023-05-15T03:05:36.627Z,9.55
2023-05-15T03:08:03.814Z,9.10
2023-05-15T03:10:30.760Z,9.50
2023-05-15T03:13:00.652Z,9.32
2023-05-15T03:15:27.934Z,11.00
2023-05-15T03:17:55.245Z,10.25
2023-05-15T03:20:22.267Z,9.90
2023-05-15T03:22:49.337Z,9.27
2023-05-15T03:25:16.571Z,10.13
2023-05-15T03:27:43.586Z,9.52
2023-05-15T03:30:11.145Z,9.68
2023-05-15T03:32:38.210Z,8.95
2023-05-15T03:35:05.742Z,9.18
2023-05-15T03:37:33.093Z,10.20
2023-05-15T03:40:00.168Z,9.35
2023-05-15T03:42:28.058Z,8.88
2023-05-15T03:44:56.478Z,9.93
2023-05-15T03:47:23.644Z,9.13
2023-05-15T03:49:53.009Z,9.18
2023-05-15T03:52:19.992Z,8.90
2023-05-15T03:54:47.238Z,11.10
2023-05-15T03:57:14.347Z,8.07
2023-05-15T03:59:41.645Z,7.72
2023-05-15T04:02:08.665Z,8.38
2023-05-15T04:04:35.865Z,8.00
2023-05-15T04:07:02.959Z,9.02
2023-05-15T04:09:29.954Z,8.45
2023-05-15T04:11:57.044Z,9.88
2023-05-15T04:14:24.053Z,11.40
2023-05-15T04:16:51.125Z,9.90
2023-05-15T04:19:18.299Z,10.75
2023-05-15T04:21:45.309Z,9.88
2023-05-15T04:24:12.556Z,11.05
2023-05-15T04:26:39.589Z,10.70
2023-05-15T04:29:06.744Z,9.88
2023-05-15T04:31:35.343Z,9.18
2023-05-15T04:34:04.055Z,9.88
2023-05-15T04:36:31.902Z,8.32
2023-05-15T04:38:59.251Z,8.03
2023-05-15T04:41:27.652Z,10.00
2023-05-15T04:43:54.757Z,8.27
2023-05-15T04:46:21.937Z,8.32
2023-05-15T04:48:48.909Z,8.38
2023-05-15T04:51:16.005Z,8.10
2023-05-15T04:53:42.963Z,7.35
2023-05-15T04:56:09.952Z,6.80
2023-05-15T04:58:37.037Z,6.95
2023-05-15T05:01:04.473Z,6.95
2023-05-15T05:03:31.977Z,6.00
2023-05-15T05:05:58.980Z,6.57
2023-05-15T05:08:26.133Z,6.57
2023-05-15T05:10:57.625Z,6.55
2023-05-15T05:13:24.645Z,6.90
2023-05-15T05:15:51.707Z,6.80
2023-05-15T05:18:18.818Z,7.07
2023-05-15T05:20:45.779Z,6.60
2023-05-15T05:23:14.988Z,6.88
2023-05-15T05:25:42.271Z,6.05
2023-05-15T05:28:09.320Z,6.43
2023-05-15T05:30:36.288Z,5.40
2023-05-15T05:33:03.512Z,5.78
2023-05-15T05:35:30.591Z,6.32
2023-05-15T05:37:57.574Z,6.10
2023-05-15T05:40:24.733Z,5.30
2023-05-15T05:42:51.890Z,5.25
2023-05-15T05:45:18.887Z,4.88
2023-05-15T05:47:45.964Z,5.00
2023-05-15T05:50:12.973Z,4.65
2023-05-15T05:52:39.957Z,4.37
2023-05-15T05:55:07.155Z,4.75
2023-05-15T05:57:34.088Z,4.47
2023-05-15T06:00:01.247Z,4.72
2023-05-15T06:02:29.961Z,4.45
2023-05-15T06:04:57.408Z,5.13
2023-05-15T06:07:24.473Z,4.90
2023-05-15T06:09:51.516Z,4.28
2023-05-15T06:12:19.579Z,4.35
2023-05-15T06:14:47.454Z,4.15
2023-05-15T06:17:14.630Z,4.17
2023-05-15T06:19:41.624Z,4.28
2023-05-15T06:22:08.591Z,4.70
2023-05-15T06:24:35.586Z,4.55
2023-05-15T06:27:02.641Z,4.25
2023-05-15T06:29:29.653Z,3.97
2023-05-15T06:31:56.572Z,4.00
2023-05-15T06:34:23.645Z,4.20
2023-05-15T06:36:51.256Z,4.10
2023-05-15T06:39:22.089Z,4.40
2023-05-15T06:41:49.235Z,2.30
2023-05-15T06:44:16.268Z,2.20
2023-05-15T06:46:43.424Z,4.50
2023-05-15T06:49:10.536Z,4.78
2023-05-15T06:51:37.576Z,1.90
2023-05-15T06:54:04.732Z,2.00
2023-05-15T06:56:31.695Z,3.88
2023-05-15T06:58:58.805Z,4.13
2023-05-15T07:01:26.458Z,4.40
2023-05-15T07:03:53.547Z,4.95
2023-05-15T07:06:20.636Z,4.93
2023-05-15T07:08:47.643Z,4.65
2023-05-15T07:11:14.784Z,2.90
2023-05-15T07:13:41.892Z,3.17
2023-05-15T07:16:08.842Z,2.97
2023-05-15T07:18:36.238Z,4.10
2023-05-15T07:21:03.398Z,4.40
2023-05-15T07:23:30.536Z,3.38
2023-05-15T07:25:57.574Z,4.53
2023-05-15T07:28:24.616Z,3.47
2023-05-15T07:30:52.841Z,4.43
2023-05-15T07:33:20.051Z,1.95
2023-05-15T07:35:47.100Z,4.70
2023-05-15T07:38:14.149Z,2.80
2023-05-15T07:40:41.384Z,4.53
2023-05-15T07:43:08.968Z,5.20
2023-05-15T07:45:36.175Z,4.35
2023-05-15T07:48:19.644Z,3.78
2023-05-15T07:50:47.645Z,2.10
2023-05-15T07:53:16.991Z,4.65
2023-05-15T07:55:44.680Z,4.17
2023-05-15T07:58:12.040Z,4.68
2023-05-15T08:00:39.212Z,4.15
2023-05-15T08:03:06.566Z,3.45
2023-05-15T08:05:33.743Z,4.70
2023-05-15T08:08:01.040Z,4.43
2023-05-15T08:10:28.161Z,4.13
2023-05-15T08:12:56.293Z,5.07
2023-05-15T08:15:24.162Z,3.60
2023-05-15T08:17:51.424Z,4.28
2023-05-15T08:20:18.501Z,4.07
2023-05-15T08:22:45.761Z,3.67
2023-05-15T08:25:12.736Z,2.00
2023-05-15T08:27:39.764Z,4.00
2023-05-15T08:30:07.577Z,4.32
2023-05-15T08:32:37.435Z,3.33
2023-05-15T08:35:05.327Z,2.35
2023-05-15T08:37:33.834Z,4.28
2023-05-15T08:40:01.178Z,4.20
2023-05-15T08:42:42.268Z,4.32
2023-05-15T08:45:10.372Z,5.07
2023-05-15T08:47:40.467Z,4.13
2023-05-15T08:50:15.417Z,3.40
2023-05-15T08:52:47.146Z,4.30
2023-05-15T08:55:15.485Z,2.53
2023-05-15T08:57:44.193Z,3.80
2023-05-15T09:00:15.017Z,4.85
2023-05-15T09:02:42.916Z,2.97
2023-05-15T09:05:10.461Z,2.40
2023-05-15T09:07:41.114Z,2.30
2023-05-15T09:10:09.972Z,3.27
2023-05-15T09:12:41.915Z,3.63
2023-05-15T09:15:22.231Z,3.08
2023-05-15T09:17:54.164Z,2.40
2023-05-15T09:20:38.043Z,3.13
2023-05-15T09:23:21.818Z,2.70
2023-05-15T09:25:53.682Z,3.15
2023-05-15T09:28:32.314Z,2.70
2023-05-15T09:31:00.655Z,2.70
2023-05-15T09:33:32.819Z,2.72
2023-05-15T09:36:00.482Z,2.60
2023-05-15T09:38:27.590Z,2.50
2023-05-15T09:41:06.303Z,2.40
2023-05-15T09:43:40.916Z,2.60
2023-05-15T09:46:09.678Z,2.58
2023-05-15T09:48:37.128Z,2.33
2023-05-15T09:51:07.914Z,2.55
2023-05-15T09:53:35.837Z,2.60
2023-05-15T09:56:03.399Z,2.90
2023-05-15T09:58:30.423Z,2.85
2023-05-15T10:01:00.988Z,2.50
2023-05-15T10:03:28.044Z,2.90
2023-05-15T10:06:02.226Z,2.83
2023-05-15T10:08:29.444Z,2.65
2023-05-15T10:11:00.016Z,2.42
2023-05-15T10:13:28.224Z,2.73
2023-05-15T10:15:56.496Z,2.40
2023-05-15T10:18:26.685Z,2.00
2023-05-15T10:20:54.743Z,2.35
2023-05-15T10:23:22.930Z,2.90
2023-05-15T10:26:03.306Z,2.97
2023-05-15T10:28:32.174Z,2.78
2023-05-15T10:31:01.860Z,2.63
2023-05-15T10:33:30.210Z,2.65
2023-05-15T10:35:59.007Z,2.40
2023-05-15T10:38:27.576Z,2.17
2023-05-15T10:41:09.129Z,2.13
2023-05-15T10:43:44.278Z,2.10
2023-05-15T10:46:11.704Z,3.42
2023-05-15T10:48:39.590Z,1.90
2023-05-15T10:51:15.103Z,2.43
2023-05-15T10:53:43.803Z,2.60
2023-05-15T10:56:17.340Z,2.40
2023-05-15T10:58:49.096Z,2.40
2023-05-15T11:01:42.545Z,2.35
2023-05-15T11:04:14.066Z,2.23
2023-05-15T11:06:44.046Z,2.30
2023-05-15T11:09:27.751Z,2.72
2023-05-15T11:11:57.679Z,3.00
2023-05-15T11:14:30.015Z,2.58
2023-05-15T11:16:59.067Z,2.60
2023-05-15T11:19:26.162Z,2.63
2023-05-15T11:22:08.461Z,2.53
2023-05-15T11:24:52.151Z,2.67
2023-05-15T11:27:20.799Z,2.70
2023-05-15T11:30:18.443Z,2.60
2023-05-15T11:32:48.695Z,2.35
2023-05-15T11:35:28.249Z,2.55
2023-05-15T11:37:58.120Z,2.20
2023-05-15T11:40:29.065Z,2.55
2023-05-15T11:43:07.176Z,2.45
2023-05-15T11:45:37.274Z,2.22
2023-05-15T11:48:06.957Z,2.33
2023-05-15T11:50:35.565Z,2.60
2023-05-15T11:53:04.711Z,2.20
2023-05-15T11:55:33.457Z,2.05
2023-05-15T11:58:01.270Z,2.00
2023-05-15T12:00:30.536Z,2.40
2023-05-15T12:02:57.887Z,2.72
2023-05-15T12:05:25.030Z,2.17
2023-05-15T12:07:52.521Z,2.40
2023-05-15T12:10:19.660Z,2.17
2023-05-15T12:12:48.970Z,2.22
2023-05-15T12:15:17.509Z,2.13
2023-05-15T12:17:46.314Z,2.20
2023-05-15T12:20:18.680Z,2.35
2023-05-15T12:22:46.172Z,2.50
2023-05-15T12:25:15.873Z,2.13
2023-05-15T12:27:43.202Z,2.10
2023-05-15T12:30:11.511Z,2.03
2023-05-15T12:32:42.371Z,2.00
2023-05-15T12:35:10.809Z,2.38
2023-05-15T12:37:38.048Z,2.60
2023-05-15T12:40:15.901Z,2.70
2023-05-15T12:42:44.858Z,2.60
2023-05-15T12:45:16.213Z,2.70
2023-05-15T12:47:45.308Z,2.58
2023-05-15T12:50:20.610Z,2.30
2023-05-15T12:52:54.751Z,2.65
2023-05-15T12:55:32.198Z,2.58
2023-05-15T12:58:04.689Z,2.15
2023-05-15T13:00:34.653Z,2.72
2023-05-15T13:03:02.482Z,2.13
2023-05-15T13:05:32.736Z,2.60
2023-05-15T13:08:00.377Z,2.53
2023-05-15T13:10:27.711Z,2.17
2023-05-15T13:12:56.727Z,2.00
2023-05-15T13:15:37.305Z,2.45
2023-05-15T13:18:06.834Z,2.38
2023-05-15T13:20:39.579Z,2.40
2023-05-15T13:23:08.092Z,2.72
2023-05-15T13:25:36.056Z,2.60
2023-05-15T13:28:05.441Z,2.50
2023-05-15T13:30:35.740Z,2.50
2023-05-15T13:33:03.063Z,2.38
2023-05-15T13:35:30.261Z,2.40
2023-05-15T13:37:57.658Z,2.55
2023-05-15T13:40:25.233Z,2.65
2023-05-15T13:42:52.469Z,2.92
2023-05-15T13:45:19.997Z,2.47
2023-05-15T13:47:47.098Z,2.33
2023-05-15T13:50:15.982Z,2.80
2023-05-15T13:52:44.671Z,2.60
2023-05-15T13:55:12.205Z,2.47
2023-05-15T13:57:40.598Z,2.55
2023-05-15T14:00:12.585Z,2.60
2023-05-15T14:02:41.204Z,3.38
2023-05-15T14:05:09.373Z,3.33
2023-05-15T14:07:36.548Z,2.70
2023-05-15T14:10:04.603Z,2.60
2023-05-15T14:12:32.692Z,2.75
2023-05-15T14:15:00.939Z,2.50
2023-05-15T14:17:28.858Z,2.65
2023-05-15T14:19:56.249Z,2.80
2023-05-15T14:22:25.339Z,2.50
2023-05-15T14:24:53.169Z,2.60
2023-05-15T14:27:20.480Z,2.47
2023-05-15T14:29:49.328Z,2.63
2023-05-15T14:32:17.104Z,2.70
2023-05-15T14:34:44.778Z,2.67
2023-05-15T14:37:11.960Z,2.77
2023-05-15T14:39:39.245Z,2.60
2023-05-15T14:42:08.026Z,2.72
2023-05-15T14:44:35.221Z,2.85
2023-05-15T14:47:10.580Z,2.80
2023-05-15T14:49:37.899Z,3.07
2023-05-15T14:52:08.263Z,2.50
2023-05-15T14:54:36.095Z,2.45
2023-05-15T14:57:03.890Z,2.40
2023-05-15T14:59:31.366Z,2.45
2023-05-15T15:01:58.457Z,2.88
2023-05-15T15:04:26.872Z,2.80
2023-05-15T15:06:57.240Z,2.33
2023-05-15T15:09:25.453Z,2.85
2023-05-15T15:11:54.142Z,2.78
2023-05-15T15:14:21.341Z,2.97
2023-05-15T15:16:48.626Z,3.58
2023-05-15T15:19:18.142Z,2.60
2023-05-15T15:21:46.860Z,2.50
2023-05-15T15:24:13.899Z,2.40
2023-05-15T15:26:41.431Z,2.55
2023-05-15T15:29:08.476Z,2.45
2023-05-15T15:31:35.832Z,2.42
2023-05-15T15:34:05.384Z,2.22
2023-05-15T15:36:32.938Z,3.00
2023-05-15T15:38:59.939Z,2.88
2023-05-15T15:41:30.552Z,2.78
2023-05-15T15:43:57.597Z,2.58
2023-05-15T15:46:24.769Z,2.95
2023-05-15T15:48:52.149Z,2.30
2023-05-15T15:51:19.131Z,2.70
2023-05-15T15:53:46.321Z,2.90
2023-05-15T15:56:13.227Z,3.10
2023-05-15T15:58:40.337Z,2.30
2023-05-15T16:01:07.538Z,2.50
2023-05-15T16:03:34.766Z,2.47
2023-05-15T16:06:01.833Z,2.15
2023-05-15T16:08:29.181Z,2.45
2023-05-15T16:10:56.255Z,2.50
2023-05-15T16:13:23.392Z,2.28
2023-05-15T16:15:50.990Z,2.92
2023-05-15T16:18:18.305Z,2.30
2023-05-15T16:20:45.363Z,2.63
2023-05-15T16:23:15.599Z,2.40
2023-05-15T16:25:44.549Z,2.33
2023-05-15T16:28:12.149Z,2.85
2023-05-15T16:33:09.210Z,2.47
2023-05-15T16:35:39.426Z,2.20
2023-05-15T16:38:21.889Z,2.28
2023-05-15T16:41:10.970Z,2.20
2023-05-15T16:43:50.982Z,2.75
2023-05-15T16:46:48.291Z,2.70
2023-05-15T16:49:37.556Z,2.70
2023-05-15T16:52:24.872Z,3.00
2023-05-15T16:55:07.073Z,2.83
2023-05-15T16:57:37.141Z,3.47
2023-05-15T17:02:51.649Z,3.00
2023-05-15T17:05:28.891Z,3.13
2023-05-15T17:08:04.828Z,2.90
2023-05-15T17:10:37.320Z,3.20
2023-05-15T17:13:17.186Z,3.20
2023-05-15T17:15:52.043Z,3.08
2023-05-15T17:18:26.811Z,3.08
2023-05-15T17:21:12.054Z,3.75
2023-05-15T17:23:54.287Z,3.17
2023-05-15T17:26:39.152Z,2.97
2023-05-15T17:29:20.651Z,3.70
2023-05-15T17:31:57.734Z,3.45
2023-05-15T17:34:31.510Z,3.08
2023-05-15T17:36:59.597Z,2.80
2023-05-15T17:39:27.493Z,2.72
2023-05-15T17:41:54.535Z,4.20
2023-05-15T17:44:23.360Z,3.28
2023-05-15T17:46:51.279Z,4.60
2023-05-15T17:49:18.461Z,4.20
2023-05-15T17:51:45.438Z,3.45
2023-05-15T17:54:12.365Z,3.30
2023-05-15T17:56:40.514Z,3.60
2023-05-15T17:59:07.662Z,3.30
2023-05-15T18:01:34.759Z,3.38
2023-05-15T18:04:01.878Z,3.45
2023-05-15T18:06:29.461Z,3.30
2023-05-15T18:08:56.585Z,2.97
2023-05-15T18:11:23.641Z,3.58
2023-05-15T18:13:50.776Z,3.72
2023-05-15T18:16:18.393Z,3.47
2023-05-15T18:18:45.445Z,3.88
2023-05-15T18:21:12.542Z,5.28
2023-05-15T18:23:39.530Z,4.95
2023-05-15T18:26:06.678Z,4.30
2023-05-15T18:28:33.774Z,4.00
2023-05-15T18:31:00.771Z,3.95
2023-05-15T18:33:28.304Z,3.92
2023-05-15T18:35:55.381Z,4.60
2023-05-15T18:38:22.567Z,4.07
2023-05-15T18:40:49.537Z,4.13
2023-05-15T18:43:16.603Z,4.50
2023-05-15T18:45:43.865Z,4.47
2023-05-15T18:48:10.929Z,4.45
2023-05-15T18:50:39.379Z,4.35
2023-05-15T18:53:07.228Z,4.60
2023-05-15T18:55:34.267Z,3.92
2023-05-15T18:58:01.360Z,4.40
2023-05-15T19:00:43.574Z,4.43
2023-05-15T19:03:11.183Z,4.22
2023-05-15T19:05:38.431Z,4.10
2023-05-15T19:08:05.539Z,4.20
2023-05-15T19:10:35.317Z,4.60
2023-05-15T19:13:03.700Z,4.13
2023-05-15T19:15:30.771Z,4.45
2023-05-15T19:17:57.919Z,4.70
2023-05-15T19:20:25.408Z,4.65
2023-05-15T19:22:54.847Z,4.82
2023-05-15T19:25:22.064Z,5.75
2023-05-15T19:27:49.083Z,5.60
2023-05-15T19:30:16.310Z,5.18
2023-05-15T19:32:43.434Z,5.20
2023-05-15T19:35:10.809Z,5.22
2023-05-15T19:37:37.934Z,5.25
2023-05-15T19:40:06.114Z,5.40
2023-05-15T19:42:33.188Z,5.68
2023-05-15T19:45:00.230Z,5.53
2023-05-15T19:47:27.579Z,5.22
2023-05-15T19:49:54.810Z,5.30
2023-05-15T19:52:21.901Z,5.68
2023-05-15T19:54:48.868Z,5.25
2023-05-15T19:57:16.209Z,6.15
2023-05-15T19:59:43.262Z,4.95
2023-05-15T20:02:11.361Z,5.45
2023-05-15T20:04:38.675Z,5.22
2023-05-15T20:07:05.855Z,5.53
2023-05-15T20:09:33.179Z,5.85
2023-05-15T20:12:00.931Z,5.45
2023-05-15T20:14:28.058Z,6.10
2023-05-15T20:16:55.123Z,6.25
2023-05-15T20:19:23.155Z,6.43
2023-05-15T20:21:50.640Z,6.50
2023-05-15T20:24:18.339Z,6.93
2023-05-15T20:26:45.568Z,5.63
2023-05-15T20:29:12.690Z,6.85
2023-05-15T20:31:40.597Z,5.30
2023-05-15T20:34:08.662Z,6.13
2023-05-15T20:36:39.027Z,5.60
2023-05-15T20:39:07.396Z,5.38
2023-05-15T20:41:34.841Z,6.10
2023-05-15T20:44:02.274Z,5.88
2023-05-15T20:46:30.744Z,6.47
2023-05-15T20:48:58.010Z,6.03
2023-05-15T20:51:25.258Z,6.05
2023-05-15T20:53:52.427Z,6.40
2023-05-15T20:56:19.420Z,6.07
2023-05-15T20:58:46.575Z,6.53
2023-05-15T21:01:13.893Z,10.48
2023-05-15T21:03:41.252Z,6.82
2023-05-15T21:06:08.933Z,7.05
2023-05-15T21:08:36.556Z,6.07
2023-05-15T21:11:03.685Z,5.22
2023-05-15T21:13:30.667Z,5.47
2023-05-15T21:15:57.655Z,4.90
2023-05-15T21:18:24.732Z,5.38
2023-05-15T21:20:51.871Z,5.40
2023-05-15T21:23:21.101Z,5.53
2023-05-15T21:25:48.330Z,5.05
2023-05-15T21:28:16.041Z,5.50
2023-05-15T21:30:43.469Z,5.22
2023-05-15T21:33:10.740Z,4.60
2023-05-15T21:35:38.360Z,4.68
2023-05-15T21:38:05.649Z,5.03
2023-05-15T21:40:32.809Z,5.00
2023-05-15T21:42:59.825Z,6.13
2023-05-15T21:45:26.896Z,5.20
2023-05-15T21:47:53.986Z,5.05
2023-05-15T21:50:20.997Z,5.20
2023-05-15T21:52:50.948Z,4.90
2023-05-15T21:55:18.862Z,4.70
2023-05-15T21:57:46.132Z,5.53
2023-05-15T22:00:14.197Z,5.55
2023-05-15T22:02:41.334Z,6.00
2023-05-15T22:05:08.877Z,5.70
2023-05-15T22:07:36.077Z,6.47
2023-05-15T22:10:03.225Z,5.97
2023-05-15T22:12:32.338Z,4.70
2023-05-15T22:15:00.109Z,5.22
2023-05-15T22:17:29.268Z,5.13
2023-05-15T22:20:07.360Z,5.80
2023-05-15T22:22:35.994Z,5.13
2023-05-15T22:25:03.501Z,5.05
2023-05-15T22:27:30.584Z,4.50
2023-05-15T22:29:57.838Z,5.40
2023-05-15T22:32:25.136Z,4.88
2023-05-15T22:34:52.476Z,5.20
2023-05-15T22:37:19.856Z,4.80
2023-05-15T22:39:46.826Z,5.15
2023-05-15T22:42:13.814Z,4.85
2023-05-15T22:44:40.873Z,5.28
2023-05-15T22:47:07.929Z,5.32
2023-05-15T22:49:34.963Z,4.78
2023-05-15T22:52:02.274Z,5.25
2023-05-15T22:54:29.562Z,5.32
2023-05-15T22:56:57.060Z,5.38
2023-05-15T22:59:24.283Z,5.28
2023-05-15T23:01:51.581Z,5.70
2023-05-15T23:04:18.798Z,5.20
2023-05-15T23:06:46.254Z,5.65
2023-05-15T23:09:13.257Z,5.88
2023-05-15T23:11:40.301Z,5.07
2023-05-15T23:14:08.558Z,5.45
2023-05-15T23:16:36.338Z,6.25
2023-05-15T23:19:03.489Z,5.60
2023-05-15T23:21:31.271Z,5.20
2023-05-15T23:23:58.331Z,5.07
2023-05-15T23:26:26.056Z,5.30
2023-05-15T23:28:53.048Z,5.30
2023-05-15T23:31:20.620Z,4.88
2023-05-15T23:33:47.729Z,5.30
2023-05-15T23:36:14.795Z,5.20
2023-05-15T23:38:41.779Z,5.05
2023-05-15T23:41:08.926Z,4.65
2023-05-15T23:43:35.943Z,5.90
2023-05-15T23:46:03.549Z,7.72
2023-05-15T23:48:31.921Z,7.15
2023-05-15T23:50:58.927Z,7.22
2023-05-15T23:53:25.977Z,8.15
2023-05-15T23:55:53.052Z,7.05
2023-05-15T23:58:20.075Z,8.55
